Articles

Rainfall Radar

Share
 
 
Share

Trim Flying Club goes to the Aran Islands

Learn to fly at Trim Flying Club

Rainfall Radar Now

Atlantic Charts Pressure - Today

Atlantic Charts Rainfall - Today

 
 

Atlantic Charts Pressure - Tomorrow

Sunrise Sunset

Click for Dublin, Ireland Forecast

Aviation WX Dublin EIDW

[source: ADDS]
METAR
EIDW 292230Z 27007KT 9999 FEW035 13/10 Q1018 NOSIG =
TAF
TAF EIDW 291700Z 2918/3018 30013KT 9999 SCT020 BKN035 BECMG 2922/2924 27013KT =